Time;durP1;ratioP1;P1;durP2;ratioP2;P2;SDS_P1;SDS_P2;PMS_P1;PMS_P2;Temp;Humidity;BMP_temperature;BMP_pressure;BME280_temperature;BME280_humidity;BME280_pressure;Samples;Min_cycle;Max_cycle;Signal;HPM_P1;HPM_P2
2021/06/23 05:02:03;;;;;;;8.90;4.53;;;;;;;27.46;65.02;94826.88;5302259;23;20062;-71
2021/06/23 05:04:29;;;;;;;12.25;4.07;;;;;;;28.05;63.75;94828.44;4930149;29;20047;-70
2021/06/23 05:06:54;;;;;;;15.63;4.70;;;;;;;27.95;63.08;94834.69;4922019;29;20035;-71
2021/06/23 05:09:20;;;;;;;17.92;4.72;;;;;;;27.89;63.78;94835.00;4928843;29;20098;-71
2021/06/23 05:11:45;;;;;;;15.40;4.95;;;;;;;27.60;65.51;94835.81;4948785;29;20031;-71
2021/06/23 05:14:12;;;;;;;14.02;4.22;;;;;;;27.29;65.28;94842.44;4928029;29;20023;-71
2021/06/23 05:16:38;;;;;;;13.55;4.55;;;;;;;28.16;64.68;94832.59;4929115;29;20036;-72
2021/06/23 05:19:04;;;;;;;11.57;4.40;;;;;;;28.45;62.15;94836.00;4921834;29;20027;-71
2021/06/23 05:21:34;;;;;;;9.55;3.97;;;;;;;29.09;60.94;94834.69;4925589;29;20087;-74
2021/06/23 05:24:02;;;;;;;8.13;3.95;;;;;;;28.70;60.83;94841.06;4930000;29;20481;-71
2021/06/23 05:26:28;;;;;;;15.05;5.53;;;;;;;28.83;61.63;94839.56;4926236;29;20136;-71
2021/06/23 05:28:55;;;;;;;12.15;4.43;;;;;;;28.61;62.86;94836.59;4905198;29;20032;-71
2021/06/23 05:31:20;;;;;;;14.30;5.80;;;;;;;29.34;59.34;94845.00;4940935;29;20110;-71
2021/06/23 05:33:46;;;;;;;14.57;4.65;;;;;;;29.87;59.74;94844.69;4916258;29;20034;-71
2021/06/23 05:36:11;;;;;;;20.60;5.00;;;;;;;29.31;58.65;94845.56;4927920;29;20042;-72
2021/06/23 05:38:37;;;;;;;15.98;4.82;;;;;;;28.78;58.99;94843.09;4938115;29;20031;-72
2021/06/23 05:41:02;;;;;;;17.20;5.80;;;;;;;29.09;58.23;94850.69;4949685;29;20035;-72
2021/06/23 05:43:28;;;;;;;14.32;4.47;;;;;;;29.78;58.71;94853.34;4915752;29;20072;-72
2021/06/23 05:45:53;;;;;;;14.43;3.88;;;;;;;29.84;57.24;94846.06;4933042;29;20487;-75
2021/06/23 05:48:18;;;;;;;10.45;3.63;;;;;;;30.32;56.17;94846.50;4949941;29;20031;-72
2021/06/23 05:50:45;;;;;;;10.95;3.70;;;;;;;29.92;57.42;94852.63;4951855;28;20477;-72
2021/06/23 05:53:10;;;;;;;6.10;4.15;;;;;;;30.36;56.68;94860.88;4936234;28;20023;-73
2021/06/23 05:55:37;;;;;;;14.38;3.85;;;;;;;30.69;54.58;94859.72;4950047;28;20031;-74
2021/06/23 05:58:03;;;;;;;18.38;3.97;;;;;;;31.35;55.12;94851.06;4970016;28;20519;-72
2021/06/23 06:00:28;;;;;;;16.17;3.35;;;;;;;32.07;53.06;94864.38;4934106;28;20042;-72
2021/06/23 06:02:54;;;;;;;21.70;4.00;;;;;;;31.29;54.42;94851.47;4935660;28;20035;-72
2021/06/23 06:05:19;;;;;;;12.52;3.60;;;;;;;31.98;52.15;94857.34;4924266;28;20030;-72
2021/06/23 06:07:45;;;;;;;15.15;4.30;;;;;;;30.89;53.84;94857.72;4951992;28;20113;-73
2021/06/23 06:10:11;;;;;;;16.55;3.85;;;;;;;31.08;53.61;94867.19;4968423;28;20544;-72
2021/06/23 06:12:37;;;;;;;13.05;4.32;;;;;;;32.05;52.34;94873.78;4950249;28;20105;-72
2021/06/23 06:15:03;;;;;;;8.88;3.95;;;;;;;31.64;52.48;94871.31;4935098;28;20046;-72
2021/06/23 06:17:28;;;;;;;10.88;3.35;;;;;;;31.17;53.84;94865.41;4934846;28;20066;-73
2021/06/23 06:19:54;;;;;;;14.05;4.13;;;;;;;31.67;53.86;94866.13;4952281;28;20477;-73
2021/06/23 06:22:19;;;;;;;18.48;4.47;;;;;;;31.05;55.28;94872.38;4934299;28;20114;-73
2021/06/23 06:24:45;;;;;;;13.50;3.80;;;;;;;31.88;51.95;94869.88;4935374;28;20030;-72
2021/06/23 06:27:10;;;;;;;11.02;4.22;;;;;;;32.35;52.61;94873.00;4948976;28;20027;-72
2021/06/23 06:29:36;;;;;;;14.93;3.80;;;;;;;31.90;51.46;94871.47;4933574;28;20042;-73
2021/06/23 06:32:01;;;;;;;30.10;5.45;;;;;;;32.35;51.51;94873.81;4934946;28;20050;-72
2021/06/23 06:34:27;;;;;;;15.18;4.65;;;;;;;31.93;51.79;94874.34;4949398;28;20042;-72
2021/06/23 06:36:52;;;;;;;16.85;4.78;;;;;;;32.26;51.57;94864.94;4967724;28;20065;-72
2021/06/23 06:39:18;;;;;;;14.82;4.22;;;;;;;32.02;51.42;94871.69;4949010;28;20734;-73
2021/06/23 06:41:45;;;;;;;18.77;4.57;;;;;;;30.63;53.43;94868.91;4932772;28;20035;-73
2021/06/23 06:44:11;;;;;;;18.98;4.57;;;;;;;31.33;53.29;94868.53;4949882;28;20051;-71
2021/06/23 06:46:37;;;;;;;24.30;4.63;;;;;;;31.46;51.73;94872.25;4966943;28;20385;-73
2021/06/23 06:49:03;;;;;;;19.40;5.00;;;;;;;31.22;53.69;94876.00;4949580;28;20019;-72
2021/06/23 06:51:29;;;;;;;14.00;5.15;;;;;;;32.91;50.75;94869.59;4949308;28;20464;-70
2021/06/23 06:53:55;;;;;;;21.58;4.20;;;;;;;32.22;52.16;94874.69;4949151;28;20033;-74
2021/06/23 06:56:20;;;;;;;22.83;4.15;;;;;;;33.09;52.26;94868.53;4965725;28;20023;-73
2021/06/23 06:58:46;;;;;;;26.60;5.13;;;;;;;34.10;47.37;94876.06;4967868;28;20031;-71
2021/06/23 07:01:11;;;;;;;12.07;4.22;;;;;;;34.41;46.71;94873.97;4965867;28;20039;-71
2021/06/23 07:03:36;;;;;;;15.38;3.97;;;;;;;34.93;46.38;94877.19;4947237;28;20034;-72
2021/06/23 07:06:02;;;;;;;15.60;4.10;;;;;;;34.09;48.06;94879.09;4949454;28;20467;-72
2021/06/23 07:08:27;;;;;;;14.75;4.00;;;;;;;34.77;45.93;94880.81;4950391;28;20043;-72
2021/06/23 07:10:53;;;;;;;19.48;4.00;;;;;;;35.29;46.00;94875.88;4968441;28;20035;-72
2021/06/23 07:13:18;;;;;;;8.05;3.30;;;;;;;38.29;38.72;94872.06;4933882;28;20027;-74
2021/06/23 07:15:44;;;;;;;14.90;3.70;;;;;;;45.63;30.69;94875.59;4934327;28;20026;-72
2021/06/23 07:18:09;;;;;;;19.20;4.63;;;;;;;50.29;24.16;94884.84;4934092;28;20030;-72
2021/06/23 07:20:35;;;;;;;14.18;4.78;;;;;;;49.28;23.43;94886.41;4934663;28;20046;-73
2021/06/23 07:23:00;;;;;;;17.40;4.53;;;;;;;49.89;23.12;94884.09;4949034;28;20027;-72
2021/06/23 07:25:27;;;;;;;16.75;4.55;;;;;;;52.79;21.17;94880.09;4949558;28;20090;-71
2021/06/23 07:27:52;;;;;;;15.90;3.65;;;;;;;54.23;20.29;94875.47;4967161;28;20031;-72
2021/06/23 07:30:19;;;;;;;23.45;5.07;;;;;;;49.96;22.24;94873.69;4934331;28;20034;-73
2021/06/23 07:37:54;;;;;;;8.48;4.35;;;;;;;36.40;40.73;94866.00;4968739;28;20057;-75
2021/06/23 07:40:25;;;;;;;15.52;5.28;;;;;;;34.64;42.83;94871.84;4930627;28;20675;-74
2021/06/23 07:42:51;;;;;;;17.45;4.78;;;;;;;33.07;46.25;94867.25;4932181;29;20031;-74
2021/06/23 07:45:16;;;;;;;26.23;5.32;;;;;;;33.66;46.91;94858.44;4929096;28;20031;-73
2021/06/23 07:47:42;;;;;;;14.77;4.55;;;;;;;33.41;49.24;94864.59;4949858;28;20034;-74
2021/06/23 07:50:09;;;;;;;21.13;5.50;;;;;;;33.96;46.50;94870.13;4949081;28;20039;-74
2021/06/23 08:09:13;;;;;;;12.02;4.88;;;;;;;32.81;49.54;94876.06;4956186;28;20045;-74
2021/06/23 08:11:40;;;;;;;21.15;4.80;;;;;;;33.14;50.53;94867.56;4971134;28;20023;-72
2021/06/23 08:14:06;;;;;;;26.10;5.22;;;;;;;33.98;48.08;94859.03;4952815;28;20035;-73
2021/06/23 08:16:35;;;;;;;15.15;5.38;;;;;;;34.04;48.76;94863.13;4938282;28;20085;-72
2021/06/23 08:19:01;;;;;;;21.63;5.22;;;;;;;34.67;47.86;94863.13;4953003;28;20113;-69
2021/06/23 08:21:26;;;;;;;16.90;4.75;;;;;;;35.02;47.51;94871.78;4954565;28;20222;-72
2021/06/23 08:23:52;;;;;;;15.50;4.85;;;;;;;34.57;46.20;94873.41;4953947;28;20022;-72
2021/06/23 08:26:17;;;;;;;15.40;4.35;;;;;;;34.61;48.33;94861.72;4953520;28;20035;-72
2021/06/23 08:28:43;;;;;;;23.00;4.90;;;;;;;34.49;47.72;94869.63;4954361;28;20105;-71
2021/06/23 08:31:08;;;;;;;15.55;4.47;;;;;;;34.17;47.44;94868.34;4952869;28;20023;-71
2021/06/23 08:33:34;;;;;;;23.88;4.47;;;;;;;33.86;46.18;94871.25;4938222;28;20035;-73
2021/06/23 08:35:59;;;;;;;17.25;5.55;;;;;;;33.40;49.75;94877.25;4936114;28;20050;-73
2021/06/23 08:38:26;;;;;;;16.13;4.45;;;;;;;33.60;49.42;94870.47;4922194;28;20086;-73
2021/06/23 08:40:51;;;;;;;25.67;5.55;;;;;;;33.86;51.68;94873.94;4952398;28;20042;-74
2021/06/23 08:43:17;;;;;;;10.32;4.85;;;;;;;34.19;47.81;94868.03;4938258;28;20125;-74
2021/06/23 08:45:43;;;;;;;20.58;4.65;;;;;;;34.70;47.73;94870.53;4936443;28;20135;-71
2021/06/23 08:48:10;;;;;;;21.10;5.05;;;;;;;34.39;46.69;94880.75;4952791;28;20022;-71
2021/06/23 08:50:35;;;;;;;25.40;4.65;;;;;;;34.11;48.67;94879.59;4954124;28;20023;-73
2021/06/23 08:53:01;;;;;;;23.90;4.97;;;;;;;33.96;46.19;94872.00;4935856;28;20101;-73
2021/06/23 08:55:26;;;;;;;24.80;4.90;;;;;;;33.57;50.25;94864.91;4971546;28;20101;-71
2021/06/23 08:57:52;;;;;;;32.08;5.05;;;;;;;34.14;46.78;94865.50;4951837;28;20023;-73
2021/06/23 09:00:18;;;;;;;21.70;4.93;;;;;;;34.50;48.89;94870.44;4938245;28;20038;-74
2021/06/23 09:02:44;;;;;;;32.25;4.95;;;;;;;33.82;49.09;94870.28;4952265;28;20141;-73
2021/06/23 09:05:13;;;;;;;26.23;5.75;;;;;;;34.42;47.47;94867.44;4921443;28;20049;-73
2021/06/23 09:07:44;;;;;;;25.02;5.15;;;;;;;34.56;49.10;94880.69;4953624;28;20174;-73
2021/06/23 09:10:18;;;;;;;16.20;4.75;;;;;;;34.93;48.47;94876.44;4920263;28;20392;-73
2021/06/23 09:13:03;;;;;;;19.88;4.20;;;;;;;34.23;45.13;94871.66;4969941;28;20038;-73
2021/06/23 09:15:44;;;;;;;22.13;3.72;;;;;;;33.92;47.75;94871.84;4952019;28;20065;-72
2021/06/23 09:18:24;;;;;;;18.58;4.47;;;;;;;34.56;45.69;94871.81;4948543;28;20536;-73
2021/06/23 09:20:52;;;;;;;26.88;3.88;;;;;;;34.70;47.28;94875.94;4951954;28;20126;-73
2021/06/23 09:23:35;;;;;;;16.40;4.15;;;;;;;34.31;47.80;94876.22;4934052;28;20109;-73
2021/06/23 09:26:12;;;;;;;16.10;5.05;;;;;;;34.17;49.30;94872.91;4938973;28;20121;-73
2021/06/23 09:28:38;;;;;;;16.83;3.65;;;;;;;34.29;49.34;94865.75;4951070;28;20027;-72
2021/06/23 09:31:06;;;;;;;15.25;3.65;;;;;;;35.02;49.65;94862.91;4935930;28;20037;-72
2021/06/23 09:33:31;;;;;;;20.53;4.77;;;;;;;34.58;47.75;94867.69;4937154;28;20559;-74
2021/06/23 09:36:02;;;;;;;27.38;4.45;;;;;;;33.73;47.84;94863.34;4951518;28;20022;-73
2021/06/23 09:38:37;;;;;;;20.60;5.05;;;;;;;32.81;49.78;94868.00;4953484;28;20026;-73
2021/06/23 09:41:19;;;;;;;22.17;4.25;;;;;;;33.40;51.12;94863.81;4968319;28;20034;-73
2021/06/23 09:43:45;;;;;;;11.27;4.50;;;;;;;34.07;49.81;94865.19;4952833;28;20704;-73
2021/06/23 09:46:15;;;;;;;22.02;3.85;;;;;;;34.02;47.87;94854.59;4941508;29;20444;-73
2021/06/23 09:48:40;;;;;;;14.35;3.83;;;;;;;33.62;49.22;94862.09;4934489;28;20845;-74
2021/06/23 09:51:14;;;;;;;20.67;3.65;;;;;;;33.46;49.03;94858.28;4952457;28;20042;-74
2021/06/23 09:53:39;;;;;;;23.55;4.43;;;;;;;33.83;51.41;94863.81;4935691;28;20119;-73
2021/06/23 09:56:28;;;;;;;22.02;3.72;;;;;;;34.49;48.01;94858.09;4937104;28;20473;-73
2021/06/23 09:58:55;;;;;;;20.25;4.20;;;;;;;34.30;48.54;94858.47;4953017;28;20026;-70
2021/06/23 10:01:21;;;;;;;20.88;5.13;;;;;;;34.06;45.46;94850.16;4938016;28;20153;-73
2021/06/23 10:03:59;;;;;;;24.17;5.28;;;;;;;33.43;48.68;94857.00;4970326;28;20497;-75
2021/06/23 10:06:33;;;;;;;19.33;4.60;;;;;;;33.13;48.26;94852.59;4950301;28;20417;-73
2021/06/23 10:09:28;;;;;;;11.10;3.67;;;;;;;33.47;50.20;94866.03;4935339;28;20031;-76
2021/06/23 10:11:55;;;;;;;111.00;10.45;;;;;;;33.14;44.94;94856.84;4947047;28;20034;-74
2021/06/23 10:14:21;;;;;;;32.20;8.27;;;;;;;31.49;52.22;94837.63;4947934;28;20526;-76
2021/06/23 10:16:51;;;;;;;24.83;7.95;;;;;;;31.92;51.89;94853.22;4915595;28;20019;-74
2021/06/23 10:19:17;;;;;;;29.15;7.50;;;;;;;32.37;50.97;94844.75;4935660;28;20492;-75
2021/06/23 10:21:42;;;;;;;30.65;7.50;;;;;;;32.50;51.18;94848.44;4918382;28;20035;-75
2021/06/23 10:24:09;;;;;;;26.80;8.18;;;;;;;32.11;48.70;94845.78;4951459;28;20094;-74
2021/06/23 10:26:40;;;;;;;33.08;7.43;;;;;;;32.10;50.74;94847.66;4941811;28;20038;-76
2021/06/23 10:29:07;;;;;;;43.90;11.95;;;;;;;31.61;49.34;94843.25;4950494;28;20034;-76
2021/06/23 10:31:32;;;;;;;32.35;10.65;;;;;;;32.04;50.18;94845.41;4968040;28;20038;-76
2021/06/23 10:33:57;;;;;;;33.08;9.07;;;;;;;32.50;47.72;94836.91;4967087;28;20085;-76
2021/06/23 10:36:24;;;;;;;24.65;6.65;;;;;;;32.43;46.02;94840.03;4933381;28;20482;-76
2021/06/23 10:38:49;;;;;;;37.17;8.68;;;;;;;32.51;46.61;94838.50;4938333;28;20027;-76
2021/06/23 10:41:15;;;;;;;27.38;7.38;;;;;;;32.72;47.20;94837.63;4949065;28;20039;-77
2021/06/23 10:43:41;;;;;;;37.00;7.68;;;;;;;32.09;46.83;94834.56;4965780;28;20408;-75
2021/06/23 10:46:06;;;;;;;26.63;7.65;;;;;;;32.47;46.12;94832.97;4948448;28;20026;-76
2021/06/23 10:49:00;;;;;;;25.27;6.40;;;;;;;32.94;45.58;94830.59;4930889;28;20106;-76
2021/06/23 10:51:27;;;;;;;37.13;7.85;;;;;;;32.57;48.75;94827.34;4951101;28;20045;-76
2021/06/23 10:53:53;;;;;;;31.15;7.43;;;;;;;32.52;49.79;94829.34;4964358;28;20126;-75
2021/06/23 10:56:48;;;;;;;26.38;6.57;;;;;;;33.09;49.58;94833.63;4933240;28;20594;-77
2021/06/23 10:59:39;;;;;;;24.83;6.07;;;;;;;32.65;47.33;94831.16;4929229;28;20035;-75
2021/06/23 11:02:05;;;;;;;36.20;6.40;;;;;;;32.96;44.83;94833.72;4926508;28;20047;-76
2021/06/23 11:04:41;;;;;;;32.42;7.40;;;;;;;33.02;46.63;94832.47;4949145;28;20049;-76
2021/06/23 11:07:06;;;;;;;23.13;6.28;;;;;;;33.20;44.29;94832.19;4914749;28;20031;-79
2021/06/23 11:09:32;;;;;;;27.05;6.88;;;;;;;33.32;46.04;94831.56;4929750;28;20038;-76
2021/06/23 11:11:58;;;;;;;28.45;6.07;;;;;;;33.05;43.94;94827.25;4942101;28;20035;-76
2021/06/23 11:14:28;;;;;;;33.10;6.78;;;;;;;32.27;41.25;94828.19;4933154;28;20058;-76
2021/06/23 11:16:54;;;;;;;36.38;7.97;;;;;;;32.61;44.34;94827.50;4918066;28;20038;-76
2021/06/23 11:19:19;;;;;;;36.30;6.78;;;;;;;32.52;44.26;94824.00;4774822;28;20059;-75
2021/06/23 11:21:46;;;;;;;27.98;6.68;;;;;;;32.63;46.28;94826.09;4914788;29;20024;-76
2021/06/23 11:24:15;;;;;;;23.20;6.35;;;;;;;32.49;44.17;94833.47;4894521;29;20678;-76
2021/06/23 11:26:40;;;;;;;31.98;6.03;;;;;;;32.42;44.01;94827.75;4908792;29;20629;-77
2021/06/23 11:29:09;;;;;;;28.02;6.03;;;;;;;32.39;44.07;94825.69;4921494;29;20106;-76
2021/06/23 11:31:44;;;;;;;;;;;;;;;31.87;45.12;94830.00;4926719;29;20083;-78
2021/06/23 11:34:10;;;;;;;29.48;6.63;;;;;;;31.71;45.84;94834.97;4918237;29;19918;-77
2021/06/23 11:36:35;;;;;;;29.85;7.93;;;;;;;32.26;47.08;94826.59;4921423;29;20031;-74
2021/06/23 11:39:02;;;;;;;25.88;6.18;;;;;;;32.02;45.21;94820.75;4913924;29;20072;-76
2021/06/23 11:41:28;;;;;;;27.55;6.32;;;;;;;32.31;44.79;94816.50;4921880;29;20031;-76
2021/06/23 11:43:53;;;;;;;37.67;6.25;;;;;;;32.30;43.86;94817.59;4924252;29;20034;-75
2021/06/23 11:46:18;;;;;;;35.88;6.38;;;;;;;32.22;43.65;94815.69;4910314;29;20043;-77
2021/06/23 11:48:44;;;;;;;26.92;6.07;;;;;;;32.43;46.21;94815.91;4926450;29;20028;-79
2021/06/23 11:51:10;;;;;;;31.77;6.28;;;;;;;32.07;43.95;94820.69;4927253;29;20028;-78
2021/06/23 11:53:35;;;;;;;33.70;6.55;;;;;;;32.26;43.46;94810.50;4925608;29;20042;-76
2021/06/23 11:56:01;;;;;;;31.33;6.30;;;;;;;32.37;45.34;94817.16;4896751;29;20028;-76
2021/06/23 11:58:27;;;;;;;23.85;5.82;;;;;;;32.24;44.61;94818.03;4916529;29;20024;-80
2021/06/23 12:00:52;;;;;;;28.23;6.35;;;;;;;32.24;45.37;94808.09;4912388;29;20087;-76
2021/06/23 12:03:18;;;;;;;29.35;6.47;;;;;;;32.31;44.89;94826.44;4894524;29;20074;-74
2021/06/23 12:05:45;;;;;;;25.25;5.82;;;;;;;32.25;45.70;94817.75;4912595;29;20143;-74
2021/06/23 12:08:10;;;;;;;26.00;6.82;;;;;;;32.26;44.93;94818.53;4901520;29;20034;-82
2021/06/23 12:10:36;;;;;;;33.10;6.53;;;;;;;32.21;44.81;94826.72;4890628;29;20058;-80
2021/06/23 12:13:01;;;;;;;28.90;7.00;;;;;;;32.14;43.57;94832.50;4893120;29;20410;-78
2021/06/23 12:15:28;;;;;;;28.20;6.00;;;;;;;32.29;43.39;94829.44;4909160;29;20107;-76
2021/06/23 12:17:55;;;;;;;25.55;6.55;;;;;;;32.01;41.95;94837.97;4880592;29;20525;-75
2021/06/23 12:20:21;;;;;;;27.63;6.88;;;;;;;32.21;42.49;94832.88;4901468;29;20040;-76
2021/06/23 12:22:55;;;;;;;25.27;6.93;;;;;;;32.26;43.10;94829.28;4884343;29;20120;-81
2021/06/23 12:25:21;;;;;;;25.45;6.63;;;;;;;32.21;45.38;94832.88;4874817;29;20032;-77
2021/06/23 12:27:46;;;;;;;30.27;7.35;;;;;;;32.36;44.28;94835.16;4891476;29;20127;-77
2021/06/23 12:30:12;;;;;;;35.70;7.43;;;;;;;32.44;45.01;94835.47;4909757;29;20032;-76
2021/06/23 12:32:37;;;;;;;25.02;7.15;;;;;;;31.86;44.49;94828.41;4910569;29;20043;-75
2021/06/23 12:35:05;;;;;;;25.30;6.35;;;;;;;31.80;45.69;94838.47;4910848;29;20028;-76
2021/06/23 12:37:31;;;;;;;40.00;8.02;;;;;;;32.17;45.21;94831.13;4928854;29;20024;-76
2021/06/23 12:39:56;;;;;;;33.65;8.18;;;;;;;31.68;47.35;94827.53;4933391;29;20024;-79
2021/06/23 12:42:22;;;;;;;25.80;6.70;;;;;;;31.53;46.11;94824.44;4914211;29;20489;-75
2021/06/23 12:44:47;;;;;;;26.42;7.18;;;;;;;32.10;44.14;94833.47;4931718;29;20059;-75
2021/06/23 12:47:13;;;;;;;33.97;7.57;;;;;;;32.16;46.34;94824.97;4900713;29;20058;-76
2021/06/23 12:49:38;;;;;;;29.42;6.53;;;;;;;32.15;46.27;94830.63;4914167;29;20024;-76
2021/06/23 12:52:04;;;;;;;38.55;8.38;;;;;;;32.07;45.19;94837.56;4882569;29;20035;-81
2021/06/23 12:54:30;;;;;;;23.08;7.30;;;;;;;32.20;44.36;94836.66;4895024;29;20491;-75
2021/06/23 12:56:55;;;;;;;35.63;7.68;;;;;;;32.17;44.80;94831.13;4896599;29;20059;-75
2021/06/23 12:59:21;;;;;;;37.22;8.80;;;;;;;32.09;44.86;94829.97;4894569;29;20043;-74
2021/06/23 13:01:46;;;;;;;31.70;7.20;;;;;;;32.02;45.76;94831.47;4914554;29;20851;-77
2021/06/23 13:04:12;;;;;;;27.23;7.28;;;;;;;32.16;44.38;94827.66;4897503;29;20028;-79
2021/06/23 13:06:38;;;;;;;25.25;7.90;;;;;;;32.09;44.81;94821.94;4899741;29;20095;-74
2021/06/23 13:09:07;;;;;;;33.92;8.43;;;;;;;31.88;44.93;94818.97;4895526;29;20047;-74
2021/06/23 13:11:32;;;;;;;;;;;;;;;31.98;44.58;94819.81;4896694;29;20107;-75
2021/06/23 13:13:58;;;;;;;36.42;8.05;;;;;;;32.04;45.02;94821.28;4914773;29;19999;-77
2021/06/23 13:16:24;;;;;;;27.25;7.07;;;;;;;31.78;44.70;94819.25;4889926;29;20040;-76
2021/06/23 13:18:51;;;;;;;31.42;7.50;;;;;;;31.98;46.17;94820.59;4898505;29;20019;-74
2021/06/23 13:21:16;;;;;;;26.77;8.15;;;;;;;32.04;46.13;94813.25;4909249;29;20031;-77
2021/06/23 13:23:42;;;;;;;25.10;6.38;;;;;;;31.81;45.67;94804.44;4915133;29;20032;-75
2021/06/23 13:26:07;;;;;;;30.58;7.53;;;;;;;31.95;46.02;94817.75;4878411;29;20024;-76
2021/06/23 13:28:33;;;;;;;24.52;6.25;;;;;;;31.81;44.81;94807.91;4899046;29;20047;-74
2021/06/23 13:30:58;;;;;;;22.23;7.25;;;;;;;31.94;45.87;94813.47;4888950;29;20035;-75
2021/06/23 13:33:24;;;;;;;31.38;7.80;;;;;;;31.79;46.27;94810.09;4894894;29;20067;-76
2021/06/23 13:35:49;;;;;;;29.00;6.90;;;;;;;31.75;45.98;94808.34;4874770;29;20047;-75
2021/06/23 13:38:15;;;;;;;36.47;7.00;;;;;;;31.72;46.70;94807.03;4874986;29;20032;-80
2021/06/23 13:40:40;;;;;;;31.73;7.38;;;;;;;31.82;46.53;94811.38;4886092;29;20092;-76
2021/06/23 13:43:06;;;;;;;22.77;7.00;;;;;;;31.75;48.26;94817.19;4916985;29;20090;-77
2021/06/23 13:45:31;;;;;;;28.27;6.45;;;;;;;31.97;44.55;94813.66;4892725;29;20094;-78
2021/06/23 13:47:57;;;;;;;30.10;6.90;;;;;;;31.75;44.64;94811.03;4906508;29;20410;-76
2021/06/23 13:50:23;;;;;;;28.02;7.05;;;;;;;31.33;46.89;94815.78;4910922;29;20036;-75
2021/06/23 13:52:49;;;;;;;34.85;8.27;;;;;;;31.38;47.74;94814.84;4911714;29;20064;-76
2021/06/23 13:55:23;;;;;;;25.70;6.72;;;;;;;31.07;48.34;94811.28;4896646;29;20023;-77
2021/06/23 13:57:53;;;;;;;31.88;7.38;;;;;;;31.22;47.03;94811.72;4911835;29;20020;-77
2021/06/23 14:00:19;;;;;;;32.70;6.22;;;;;;;31.61;46.87;94810.28;4890285;29;20028;-78
2021/06/23 14:02:44;;;;;;;34.20;8.07;;;;;;;31.37;45.66;94801.78;4886811;29;20070;-77
2021/06/23 14:05:10;;;;;;;32.58;6.90;;;;;;;31.51;47.85;94811.34;4888457;29;20108;-75
2021/06/23 14:07:35;;;;;;;21.52;6.40;;;;;;;31.25;46.64;94813.00;4914109;29;20032;-77
2021/06/23 14:10:03;;;;;;;27.35;6.50;;;;;;;31.12;47.65;94813.84;4898413;29;20087;-77
2021/06/23 14:12:28;;;;;;;31.38;6.50;;;;;;;31.33;47.85;94813.09;4930068;29;20027;-76
2021/06/23 14:14:54;;;;;;;23.98;6.20;;;;;;;31.55;47.88;94822.25;4897887;29;20079;-77
2021/06/23 14:17:19;;;;;;;24.42;6.50;;;;;;;31.63;48.44;94814.25;4877634;29;20047;-78
2021/06/23 14:19:45;;;;;;;19.90;5.80;;;;;;;31.38;46.62;94803.31;4889839;29;20111;-76
2021/06/23 14:22:10;;;;;;;20.25;6.40;;;;;;;31.42;47.92;94807.78;4902508;29;20043;-77
2021/06/23 14:24:38;;;;;;;26.63;6.88;;;;;;;31.44;45.77;94807.47;4905930;29;20425;-75
2021/06/23 14:27:07;;;;;;;30.70;6.28;;;;;;;31.45;45.31;94811.72;4874690;29;20080;-77
2021/06/23 14:29:32;;;;;;;30.17;7.18;;;;;;;31.44;45.53;94805.59;4875989;29;20039;-78
2021/06/23 14:31:58;;;;;;;27.55;6.15;;;;;;;31.54;46.59;94807.25;4884487;29;20027;-76
2021/06/23 14:34:23;;;;;;;18.15;5.28;;;;;;;31.44;43.10;94797.53;4868081;29;20039;-76
2021/06/23 14:36:49;;;;;;;21.65;5.60;;;;;;;31.42;43.92;94790.91;4879012;29;20028;-75
2021/06/23 14:39:14;;;;;;;24.90;5.30;;;;;;;31.58;44.26;94798.31;4892703;29;20028;-76
2021/06/23 14:41:40;;;;;;;28.40;5.72;;;;;;;31.44;45.59;94791.41;4893636;29;20028;-76
2021/06/23 14:44:05;;;;;;;26.35;5.88;;;;;;;31.54;45.16;94788.50;4861195;29;20092;-76
2021/06/23 14:46:31;;;;;;;19.60;6.07;;;;;;;31.42;44.01;94782.88;4909836;29;20439;-74
2021/06/23 14:48:56;;;;;;;22.15;5.78;;;;;;;31.44;45.14;94789.50;4872667;29;20040;-74
2021/06/23 14:51:22;;;;;;;25.02;5.88;;;;;;;31.22;46.44;94782.28;4882033;29;20032;-76
2021/06/23 14:53:47;;;;;;;23.35;5.38;;;;;;;31.33;43.07;94785.50;4893990;29;20032;-78
2021/06/23 14:56:13;;;;;;;20.20;5.72;;;;;;;31.22;44.04;94778.81;4892417;29;20095;-77
2021/06/23 14:58:38;;;;;;;18.77;4.80;;;;;;;31.31;43.36;94790.38;4890562;29;20104;-75
2021/06/23 15:01:04;;;;;;;28.88;6.00;;;;;;;31.33;44.59;94788.19;4875185;29;20051;-77
2021/06/23 15:03:29;;;;;;;19.15;6.15;;;;;;;31.11;46.85;94785.50;4831774;29;20094;-78
2021/06/23 15:05:56;;;;;;;27.30;6.30;;;;;;;31.19;47.03;94782.88;4881879;29;20448;-74
2021/06/23 15:08:22;;;;;;;26.30;6.07;;;;;;;31.13;47.27;94783.31;4851715;29;20039;-74
2021/06/23 15:10:47;;;;;;;24.88;5.68;;;;;;;31.20;47.79;94775.66;4869180;29;20410;-74
2021/06/23 15:13:13;;;;;;;25.67;5.30;;;;;;;31.22;47.34;94781.47;4897473;29;20028;-74
2021/06/23 15:15:39;;;;;;;25.90;5.90;;;;;;;31.23;45.16;94785.75;4867958;29;20020;-75
2021/06/23 15:18:05;;;;;;;20.13;5.50;;;;;;;31.17;43.97;94784.28;4885565;29;20032;-75
2021/06/23 15:20:30;;;;;;;25.27;5.15;;;;;;;31.08;43.83;94788.78;4878210;29;20063;-73
2021/06/23 15:22:56;;;;;;;15.95;4.78;;;;;;;31.13;43.62;94783.31;4887710;29;20414;-74
2021/06/23 15:25:21;;;;;;;28.50;5.00;;;;;;;31.09;45.45;94788.47;4874388;29;20069;-76
2021/06/23 15:27:46;;;;;;;19.10;5.18;;;;;;;31.09;41.75;94787.69;4874943;29;20028;-76
2021/06/23 15:30:12;;;;;;;27.92;5.85;;;;;;;30.87;43.23;94791.09;4858200;29;20024;-74
2021/06/23 15:32:38;;;;;;;16.88;5.45;;;;;;;30.86;44.86;94786.06;4875404;29;20044;-81
2021/06/23 15:35:04;;;;;;;23.83;5.25;;;;;;;31.09;46.06;94788.47;4889916;29;20047;-77
2021/06/23 15:37:30;;;;;;;24.15;5.20;;;;;;;30.92;45.45;94787.53;4860058;29;20427;-77
2021/06/23 15:39:56;;;;;;;17.17;4.68;;;;;;;30.96;46.53;94807.25;4872757;29;20032;-75
2021/06/23 15:42:22;;;;;;;23.23;4.70;;;;;;;30.75;46.89;94804.22;4873311;29;20494;-75
2021/06/23 15:44:48;;;;;;;17.55;4.03;;;;;;;30.78;46.99;94809.75;4881468;29;20033;-76
2021/06/23 15:47:13;;;;;;;22.80;4.82;;;;;;;30.73;48.07;94817.09;4873693;29;20032;-76
2021/06/23 15:49:39;;;;;;;29.02;5.72;;;;;;;30.53;49.50;94812.19;4889006;29;20400;-75
2021/06/23 15:52:04;;;;;;;28.10;5.93;;;;;;;30.48;49.82;94825.63;4861834;29;20032;-75
2021/06/23 15:54:30;;;;;;;31.48;5.93;;;;;;;30.48;48.70;94831.78;4856119;29;20047;-80
2021/06/23 15:56:55;;;;;;;15.75;5.60;;;;;;;30.47;48.12;94835.53;4861217;29;20040;-76
2021/06/23 15:59:21;;;;;;;25.50;4.75;;;;;;;30.39;46.70;94830.06;4857055;29;20084;-74
2021/06/23 16:01:46;;;;;;;26.98;5.13;;;;;;;30.21;45.69;94837.88;4894031;29;20510;-75
2021/06/23 16:04:12;;;;;;;19.83;5.18;;;;;;;30.30;43.81;94840.69;4892595;29;20032;-75
2021/06/23 16:06:37;;;;;;;28.05;6.80;;;;;;;30.24;43.62;94845.34;4892790;29;20506;-77
2021/06/23 16:09:07;;;;;;;25.50;6.47;;;;;;;30.23;42.99;94854.44;4896482;29;20036;-74
2021/06/23 16:11:32;;;;;;;19.52;5.10;;;;;;;30.00;44.69;94846.59;4891374;29;20032;-75
2021/06/23 16:13:58;;;;;;;26.80;5.07;;;;;;;29.92;44.90;94852.63;4895089;29;20067;-74
2021/06/23 16:16:24;;;;;;;28.85;5.57;;;;;;;30.03;45.03;94862.03;4914332;29;20418;-74
2021/06/23 16:18:49;;;;;;;19.48;4.97;;;;;;;29.88;45.03;94857.75;4895751;29;20028;-73
2021/06/23 16:21:15;;;;;;;26.63;4.75;;;;;;;29.87;44.61;94858.03;4913620;29;20490;-74
2021/06/23 16:23:47;;;;;;;22.65;4.40;;;;;;;29.67;46.65;94865.28;4912475;29;20032;-75
2021/06/23 16:26:13;;;;;;;23.42;5.15;;;;;;;29.56;46.32;94852.38;4912091;29;20076;-75
2021/06/23 16:28:38;;;;;;;19.40;5.05;;;;;;;29.67;46.60;94869.81;4912660;29;20040;-76
2021/06/23 16:31:04;;;;;;;21.25;4.93;;;;;;;29.74;46.94;94870.25;4910801;29;20024;-75
2021/06/23 16:33:29;;;;;;;20.90;5.35;;;;;;;29.57;48.58;94859.31;4913406;29;20451;-76
2021/06/23 16:35:55;;;;;;;22.90;5.00;;;;;;;29.40;50.71;94865.19;4895212;29;20036;-74
2021/06/23 16:38:21;;;;;;;23.13;4.90;;;;;;;29.41;50.82;94869.44;4913725;29;20345;-74
2021/06/23 16:40:47;;;;;;;23.25;5.07;;;;;;;29.39;52.65;94860.94;4887271;29;20042;-75
2021/06/23 16:43:12;;;;;;;28.73;5.25;;;;;;;29.22;54.45;94872.09;4898857;29;20024;-76
2021/06/23 16:45:38;;;;;;;20.10;5.65;;;;;;;29.10;56.60;94870.94;4875271;29;20481;-76
2021/06/23 16:48:04;;;;;;;31.02;6.45;;;;;;;28.98;57.92;94875.91;4884694;29;20041;-76